Kezdőlap
METAR-TAF:

METAR-TAF

Repülőterek :

New Delhi, India

földrajzi szélesség: 28-34N, földrajzi hosszúság: 077-07E, magasság: 220 m

Jelenlegi meteorológiai megfigyelések

A jelentés 35 perccel ezelõtt készült, 13:30 UTC
Nyugati szél 4 kt
Hőmérséklet 24°C
Páratartalom 38%
Légköri nyomás 1013 hPa
Látótávolság: 3200 m
Száraz légköri homály

METAR: VIDP 311330Z 28004KT 3200 HZ NSC 24/09 Q1013 NOSIG

Idő: 19:35 (14:05 UTC)

Előrejelzés

A jelentés 6 órával és 5 perccel ezelõtt készült, 08:00 UTC
Az előrejelzés 31-én 09 óra UTC és 31-én 18 óra UTC között érvényes
Északnyugati szél 8 kt
Látótávolság: 2500 m
füst, Száraz légköri homály
31-én 15 óra UTC és 31-én 17 óra UTC között fokozatosan kialakuló
Látótávolság: 2000 m
füst, Párásság

TAF: VIDP 310800Z 3109/3118 32008KT 2500 FU HZ NSC BECMG 3115/3117 2000 FU BR

Meteorológiai megfigyelések és előrejelzések több, mint 4000 repülőtéren (METAR és TAF jelentéseket).

A térképen piros és sárga pontok jelzik az elérhető meteorológiai állomásokat.

Mozgassa az egeret a pont fölött, hogy megjelenjen az állomás neve.

Azután kattintson az időjárási megfigyelések és előrejelzések megtekintéséhez.

A térkép megváltoztatása: kattintson a fekete keresztel jelölt zöld gombra ráközelítéshez, a vonallal jelölt zöld gombra távolításhoz, vagy a zöld nyilakra a szomszédos térképek eléréséhez.


METAR-TAF: